sensor_id;sensor_type;location;lat;lon;timestamp;P1;durP1;ratioP1;P2;durP2;ratioP2
62696;SDS011;48761;42.680;23.312;2022-12-26T00:00:54;41.22;;;21.77;;
62696;SDS011;48761;42.680;23.312;2022-12-26T00:03:24;43.70;;;22.73;;
62696;SDS011;48761;42.680;23.312;2022-12-26T00:05:51;40.20;;;22.63;;
62696;SDS011;48761;42.680;23.312;2022-12-26T00:08:17;38.85;;;22.40;;
62696;SDS011;48761;42.680;23.312;2022-12-26T00:10:43;41.67;;;22.80;;
62696;SDS011;48761;42.680;23.312;2022-12-26T00:13:09;52.67;;;27.65;;
62696;SDS011;48761;42.680;23.312;2022-12-26T00:15:38;38.97;;;24.20;;
62696;SDS011;48761;42.680;23.312;2022-12-26T00:18:04;39.05;;;23.58;;
62696;SDS011;48761;42.680;23.312;2022-12-26T00:20:30;49.08;;;28.75;;
62696;SDS011;48761;42.680;23.312;2022-12-26T00:22:56;51.90;;;28.17;;
62696;SDS011;48761;42.680;23.312;2022-12-26T00:25:22;54.45;;;28.55;;
62696;SDS011;48761;42.680;23.312;2022-12-26T00:27:48;48.30;;;25.45;;
62696;SDS011;48761;42.680;23.312;2022-12-26T00:30:14;51.38;;;26.85;;
62696;SDS011;48761;42.680;23.312;2022-12-26T00:32:40;45.75;;;25.10;;
62696;SDS011;48761;42.680;23.312;2022-12-26T00:35:06;49.05;;;27.60;;
62696;SDS011;48761;42.680;23.312;2022-12-26T00:37:32;53.03;;;29.15;;
62696;SDS011;48761;42.680;23.312;2022-12-26T00:39:58;50.97;;;27.38;;
62696;SDS011;48761;42.680;23.312;2022-12-26T00:42:24;46.50;;;27.80;;
62696;SDS011;48761;42.680;23.312;2022-12-26T00:44:50;47.45;;;26.95;;
62696;SDS011;48761;42.680;23.312;2022-12-26T00:47:16;48.60;;;26.95;;
62696;SDS011;48761;42.680;23.312;2022-12-26T00:49:42;49.08;;;26.42;;
62696;SDS011;48761;42.680;23.312;2022-12-26T00:52:08;48.55;;;25.77;;
62696;SDS011;48761;42.680;23.312;2022-12-26T00:54:34;51.42;;;27.10;;
62696;SDS011;48761;42.680;23.312;2022-12-26T00:57:00;46.60;;;25.33;;
62696;SDS011;48761;42.680;23.312;2022-12-26T00:59:26;46.80;;;25.75;;
62696;SDS011;48761;42.680;23.312;2022-12-26T01:01:52;45.50;;;24.88;;
62696;SDS011;48761;42.680;23.312;2022-12-26T01:04:17;45.67;;;26.23;;
62696;SDS011;48761;42.680;23.312;2022-12-26T01:06:43;49.85;;;27.60;;
62696;SDS011;48761;42.680;23.312;2022-12-26T01:09:09;49.95;;;27.35;;
62696;SDS011;48761;42.680;23.312;2022-12-26T01:11:35;49.58;;;27.38;;
62696;SDS011;48761;42.680;23.312;2022-12-26T01:14:02;53.53;;;26.65;;
62696;SDS011;48761;42.680;23.312;2022-12-26T01:16:28;49.42;;;26.73;;
62696;SDS011;48761;42.680;23.312;2022-12-26T01:18:54;52.58;;;27.38;;
62696;SDS011;48761;42.680;23.312;2022-12-26T01:21:20;56.30;;;28.58;;
62696;SDS011;48761;42.680;23.312;2022-12-26T01:23:46;53.80;;;28.33;;
62696;SDS011;48761;42.680;23.312;2022-12-26T01:26:12;55.17;;;27.58;;
62696;SDS011;48761;42.680;23.312;2022-12-26T01:28:37;49.75;;;27.13;;
62696;SDS011;48761;42.680;23.312;2022-12-26T01:31:04;51.25;;;26.42;;
62696;SDS011;48761;42.680;23.312;2022-12-26T01:33:30;46.20;;;26.67;;
62696;SDS011;48761;42.680;23.312;2022-12-26T01:35:57;52.58;;;26.15;;
62696;SDS011;48761;42.680;23.312;2022-12-26T01:38:24;47.25;;;26.10;;
62696;SDS011;48761;42.680;23.312;2022-12-26T01:40:50;47.83;;;28.08;;
62696;SDS011;48761;42.680;23.312;2022-12-26T01:43:16;47.15;;;25.98;;
62696;SDS011;48761;42.680;23.312;2022-12-26T01:45:43;51.38;;;26.88;;
62696;SDS011;48761;42.680;23.312;2022-12-26T01:48:19;52.03;;;27.05;;
62696;SDS011;48761;42.680;23.312;2022-12-26T01:50:53;48.35;;;27.10;;
62696;SDS011;48761;42.680;23.312;2022-12-26T01:53:23;53.80;;;28.10;;
62696;SDS011;48761;42.680;23.312;2022-12-26T01:56:20;60.22;;;30.00;;
62696;SDS011;48761;42.680;23.312;2022-12-26T01:58:48;53.20;;;28.85;;
62696;SDS011;48761;42.680;23.312;2022-12-26T02:01:17;50.97;;;26.50;;
62696;SDS011;48761;42.680;23.312;2022-12-26T02:03:45;48.10;;;26.55;;
62696;SDS011;48761;42.680;23.312;2022-12-26T02:06:12;49.22;;;27.65;;
62696;SDS011;48761;42.680;23.312;2022-12-26T02:08:40;49.58;;;27.85;;
62696;SDS011;48761;42.680;23.312;2022-12-26T02:11:15;47.80;;;26.95;;
62696;SDS011;48761;42.680;23.312;2022-12-26T02:13:52;55.28;;;26.35;;
62696;SDS011;48761;42.680;23.312;2022-12-26T02:16:19;49.25;;;27.70;;
62696;SDS011;48761;42.680;23.312;2022-12-26T02:18:45;51.13;;;27.45;;
62696;SDS011;48761;42.680;23.312;2022-12-26T02:32:48;38.35;;;23.38;;
62696;SDS011;48761;42.680;23.312;2022-12-26T02:35:49;50.22;;;25.08;;
62696;SDS011;48761;42.680;23.312;2022-12-26T02:46:17;44.97;;;23.60;;
62696;SDS011;48761;42.680;23.312;2022-12-26T02:49:13;39.85;;;23.52;;
62696;SDS011;48761;42.680;23.312;2022-12-26T02:52:28;40.08;;;23.75;;
62696;SDS011;48761;42.680;23.312;2022-12-26T02:54:47;48.00;;;22.88;;
62696;SDS011;48761;42.680;23.312;2022-12-26T02:57:22;40.05;;;21.60;;
62696;SDS011;48761;42.680;23.312;2022-12-26T03:02:28;48.10;;;26.75;;
62696;SDS011;48761;42.680;23.312;2022-12-26T03:04:59;59.35;;;31.58;;
62696;SDS011;48761;42.680;23.312;2022-12-26T03:07:29;57.33;;;31.02;;
62696;SDS011;48761;42.680;23.312;2022-12-26T03:10:00;65.93;;;33.42;;
62696;SDS011;48761;42.680;23.312;2022-12-26T03:12:47;52.67;;;28.88;;
62696;SDS011;48761;42.680;23.312;2022-12-26T03:15:19;49.97;;;26.98;;
62696;SDS011;48761;42.680;23.312;2022-12-26T03:17:50;51.00;;;27.33;;
62696;SDS011;48761;42.680;23.312;2022-12-26T03:20:25;54.53;;;27.88;;
62696;SDS011;48761;42.680;23.312;2022-12-26T03:28:03;45.38;;;25.00;;
62696;SDS011;48761;42.680;23.312;2022-12-26T03:30:29;47.53;;;26.58;;
62696;SDS011;48761;42.680;23.312;2022-12-26T03:32:56;48.20;;;25.38;;
62696;SDS011;48761;42.680;23.312;2022-12-26T03:35:23;50.92;;;24.70;;
62696;SDS011;48761;42.680;23.312;2022-12-26T03:37:55;49.13;;;25.77;;
62696;SDS011;48761;42.680;23.312;2022-12-26T03:40:47;42.33;;;23.38;;
62696;SDS011;48761;42.680;23.312;2022-12-26T03:51:07;42.53;;;25.63;;
62696;SDS011;48761;42.680;23.312;2022-12-26T03:54:08;48.30;;;24.67;;
62696;SDS011;48761;42.680;23.312;2022-12-26T03:56:45;46.35;;;24.88;;
62696;SDS011;48761;42.680;23.312;2022-12-26T03:59:24;41.40;;;23.98;;
62696;SDS011;48761;42.680;23.312;2022-12-26T04:01:57;43.30;;;24.27;;
62696;SDS011;48761;42.680;23.312;2022-12-26T04:04:28;43.60;;;23.85;;
62696;SDS011;48761;42.680;23.312;2022-12-26T04:07:02;50.25;;;24.55;;
62696;SDS011;48761;42.680;23.312;2022-12-26T04:09:41;37.97;;;22.73;;
62696;SDS011;48761;42.680;23.312;2022-12-26T04:12:13;39.22;;;23.23;;
62696;SDS011;48761;42.680;23.312;2022-12-26T04:17:41;43.85;;;23.60;;
62696;SDS011;48761;42.680;23.312;2022-12-26T04:20:28;43.50;;;23.10;;
62696;SDS011;48761;42.680;23.312;2022-12-26T04:23:03;43.72;;;23.55;;
62696;SDS011;48761;42.680;23.312;2022-12-26T04:26:26;47.05;;;23.65;;
62696;SDS011;48761;42.680;23.312;2022-12-26T04:28:51;39.85;;;22.70;;
62696;SDS011;48761;42.680;23.312;2022-12-26T04:34:00;41.28;;;23.58;;
62696;SDS011;48761;42.680;23.312;2022-12-26T04:36:38;42.80;;;23.88;;
62696;SDS011;48761;42.680;23.312;2022-12-26T04:39:10;39.63;;;22.90;;
62696;SDS011;48761;42.680;23.312;2022-12-26T04:41:40;45.33;;;23.77;;
62696;SDS011;48761;42.680;23.312;2022-12-26T04:44:08;45.97;;;23.52;;
62696;SDS011;48761;42.680;23.312;2022-12-26T04:46:40;42.67;;;23.50;;
62696;SDS011;48761;42.680;23.312;2022-12-26T04:49:09;39.75;;;24.17;;
62696;SDS011;48761;42.680;23.312;2022-12-26T04:51:36;41.55;;;23.15;;
62696;SDS011;48761;42.680;23.312;2022-12-26T04:54:03;42.28;;;22.80;;
62696;SDS011;48761;42.680;23.312;2022-12-26T04:56:30;38.40;;;21.52;;
62696;SDS011;48761;42.680;23.312;2022-12-26T04:58:56;42.17;;;22.63;;
62696;SDS011;48761;42.680;23.312;2022-12-26T05:01:22;41.08;;;22.58;;
62696;SDS011;48761;42.680;23.312;2022-12-26T05:03:48;45.78;;;22.17;;
62696;SDS011;48761;42.680;23.312;2022-12-26T05:06:14;41.17;;;21.45;;
62696;SDS011;48761;42.680;23.312;2022-12-26T05:08:40;35.75;;;21.25;;
62696;SDS011;48761;42.680;23.312;2022-12-26T05:11:07;39.60;;;22.48;;
62696;SDS011;48761;42.680;23.312;2022-12-26T05:13:33;38.00;;;20.35;;
62696;SDS011;48761;42.680;23.312;2022-12-26T05:15:59;39.78;;;22.08;;
62696;SDS011;48761;42.680;23.312;2022-12-26T05:18:25;37.78;;;20.80;;
62696;SDS011;48761;42.680;23.312;2022-12-26T05:20:51;35.30;;;21.13;;
62696;SDS011;48761;42.680;23.312;2022-12-26T05:23:22;36.85;;;20.33;;
62696;SDS011;48761;42.680;23.312;2022-12-26T05:25:50;40.38;;;20.77;;
62696;SDS011;48761;42.680;23.312;2022-12-26T05:28:16;37.58;;;21.27;;
62696;SDS011;48761;42.680;23.312;2022-12-26T05:30:42;39.95;;;21.15;;
62696;SDS011;48761;42.680;23.312;2022-12-26T05:33:08;37.35;;;20.50;;
62696;SDS011;48761;42.680;23.312;2022-12-26T05:35:34;40.75;;;21.10;;
62696;SDS011;48761;42.680;23.312;2022-12-26T05:38:00;39.75;;;21.00;;
62696;SDS011;48761;42.680;23.312;2022-12-26T05:40:26;41.75;;;20.48;;
62696;SDS011;48761;42.680;23.312;2022-12-26T05:42:52;38.92;;;20.25;;
62696;SDS011;48761;42.680;23.312;2022-12-26T05:45:18;35.20;;;21.40;;
62696;SDS011;48761;42.680;23.312;2022-12-26T05:47:44;45.47;;;23.13;;
62696;SDS011;48761;42.680;23.312;2022-12-26T05:50:10;36.33;;;21.40;;
62696;SDS011;48761;42.680;23.312;2022-12-26T05:52:36;34.03;;;20.52;;
62696;SDS011;48761;42.680;23.312;2022-12-26T05:55:02;46.15;;;24.02;;
62696;SDS011;48761;42.680;23.312;2022-12-26T05:57:28;43.35;;;23.38;;
62696;SDS011;48761;42.680;23.312;2022-12-26T05:59:54;47.03;;;22.67;;
62696;SDS011;48761;42.680;23.312;2022-12-26T06:02:20;45.78;;;25.90;;
62696;SDS011;48761;42.680;23.312;2022-12-26T06:04:46;50.60;;;27.33;;
62696;SDS011;48761;42.680;23.312;2022-12-26T06:07:12;50.83;;;27.25;;
62696;SDS011;48761;42.680;23.312;2022-12-26T06:09:38;53.55;;;28.05;;
62696;SDS011;48761;42.680;23.312;2022-12-26T06:12:04;51.55;;;27.10;;
62696;SDS011;48761;42.680;23.312;2022-12-26T06:14:30;48.92;;;27.80;;
62696;SDS011;48761;42.680;23.312;2022-12-26T06:16:55;48.13;;;27.92;;
62696;SDS011;48761;42.680;23.312;2022-12-26T06:19:21;53.88;;;29.45;;
62696;SDS011;48761;42.680;23.312;2022-12-26T06:21:47;46.40;;;27.45;;
62696;SDS011;48761;42.680;23.312;2022-12-26T06:24:13;52.28;;;27.40;;
62696;SDS011;48761;42.680;23.312;2022-12-26T06:26:39;49.28;;;26.38;;
62696;SDS011;48761;42.680;23.312;2022-12-26T06:29:05;46.30;;;26.70;;
62696;SDS011;48761;42.680;23.312;2022-12-26T06:31:32;46.97;;;27.33;;
62696;SDS011;48761;42.680;23.312;2022-12-26T06:33:58;49.00;;;25.92;;
62696;SDS011;48761;42.680;23.312;2022-12-26T06:36:24;49.75;;;26.20;;
62696;SDS011;48761;42.680;23.312;2022-12-26T06:38:52;43.70;;;24.23;;
62696;SDS011;48761;42.680;23.312;2022-12-26T06:41:19;51.88;;;26.35;;
62696;SDS011;48761;42.680;23.312;2022-12-26T06:43:47;41.92;;;23.85;;
62696;SDS011;48761;42.680;23.312;2022-12-26T06:46:15;46.78;;;24.17;;
62696;SDS011;48761;42.680;23.312;2022-12-26T06:48:43;43.67;;;24.05;;
62696;SDS011;48761;42.680;23.312;2022-12-26T06:51:13;39.78;;;22.67;;
62696;SDS011;48761;42.680;23.312;2022-12-26T06:53:42;42.55;;;24.10;;
62696;SDS011;48761;42.680;23.312;2022-12-26T06:56:09;40.97;;;23.25;;
62696;SDS011;48761;42.680;23.312;2022-12-26T06:58:37;41.65;;;23.98;;
62696;SDS011;48761;42.680;23.312;2022-12-26T07:01:08;39.92;;;22.30;;
62696;SDS011;48761;42.680;23.312;2022-12-26T07:03:36;40.00;;;23.63;;
62696;SDS011;48761;42.680;23.312;2022-12-26T07:06:03;45.38;;;22.42;;
62696;SDS011;48761;42.680;23.312;2022-12-26T07:08:30;37.85;;;22.80;;
62696;SDS011;48761;42.680;23.312;2022-12-26T07:10:57;39.45;;;22.60;;
62696;SDS011;48761;42.680;23.312;2022-12-26T07:13:23;39.13;;;22.00;;
62696;SDS011;48761;42.680;23.312;2022-12-26T07:15:48;39.45;;;23.45;;
62696;SDS011;48761;42.680;23.312;2022-12-26T07:18:15;39.63;;;24.08;;
62696;SDS011;48761;42.680;23.312;2022-12-26T07:20:41;43.92;;;23.60;;
62696;SDS011;48761;42.680;23.312;2022-12-26T07:23:07;40.28;;;23.75;;
62696;SDS011;48761;42.680;23.312;2022-12-26T07:25:33;40.90;;;23.23;;
62696;SDS011;48761;42.680;23.312;2022-12-26T07:28:02;49.40;;;23.83;;
62696;SDS011;48761;42.680;23.312;2022-12-26T07:30:28;42.42;;;23.90;;
62696;SDS011;48761;42.680;23.312;2022-12-26T07:32:54;44.03;;;24.40;;
62696;SDS011;48761;42.680;23.312;2022-12-26T07:35:20;46.10;;;23.52;;
62696;SDS011;48761;42.680;23.312;2022-12-26T07:37:46;39.97;;;22.95;;
62696;SDS011;48761;42.680;23.312;2022-12-26T07:40:12;38.72;;;22.27;;
62696;SDS011;48761;42.680;23.312;2022-12-26T07:42:39;43.10;;;23.73;;
62696;SDS011;48761;42.680;23.312;2022-12-26T07:45:05;39.20;;;22.80;;
62696;SDS011;48761;42.680;23.312;2022-12-26T07:47:31;38.47;;;22.42;;
62696;SDS011;48761;42.680;23.312;2022-12-26T07:49:57;38.30;;;22.13;;
62696;SDS011;48761;42.680;23.312;2022-12-26T07:52:23;37.65;;;22.58;;
62696;SDS011;48761;42.680;23.312;2022-12-26T07:54:49;42.08;;;21.63;;
62696;SDS011;48761;42.680;23.312;2022-12-26T07:57:15;42.53;;;24.02;;
62696;SDS011;48761;42.680;23.312;2022-12-26T07:59:41;35.30;;;21.77;;
62696;SDS011;48761;42.680;23.312;2022-12-26T08:02:08;41.13;;;23.60;;
62696;SDS011;48761;42.680;23.312;2022-12-26T08:04:35;39.63;;;23.90;;
62696;SDS011;48761;42.680;23.312;2022-12-26T08:07:01;40.05;;;23.23;;
62696;SDS011;48761;42.680;23.312;2022-12-26T08:09:27;42.58;;;23.13;;
62696;SDS011;48761;42.680;23.312;2022-12-26T08:11:53;39.17;;;23.23;;
62696;SDS011;48761;42.680;23.312;2022-12-26T08:14:19;40.55;;;23.83;;
62696;SDS011;48761;42.680;23.312;2022-12-26T08:16:45;41.65;;;24.75;;
62696;SDS011;48761;42.680;23.312;2022-12-26T08:19:11;39.72;;;23.20;;
62696;SDS011;48761;42.680;23.312;2022-12-26T08:21:37;61.72;;;34.42;;
62696;SDS011;48761;42.680;23.312;2022-12-26T08:24:03;47.58;;;27.42;;
62696;SDS011;48761;42.680;23.312;2022-12-26T08:26:29;40.47;;;24.98;;
62696;SDS011;48761;42.680;23.312;2022-12-26T08:28:56;44.35;;;25.75;;
62696;SDS011;48761;42.680;23.312;2022-12-26T08:31:22;39.50;;;25.27;;
62696;SDS011;48761;42.680;23.312;2022-12-26T08:33:48;39.67;;;25.00;;
62696;SDS011;48761;42.680;23.312;2022-12-26T08:36:15;36.03;;;23.20;;
62696;SDS011;48761;42.680;23.312;2022-12-26T08:38:41;42.08;;;25.98;;
62696;SDS011;48761;42.680;23.312;2022-12-26T08:41:08;42.45;;;26.75;;
62696;SDS011;48761;42.680;23.312;2022-12-26T08:43:34;50.88;;;28.02;;
62696;SDS011;48761;42.680;23.312;2022-12-26T08:46:04;43.53;;;28.00;;
62696;SDS011;48761;42.680;23.312;2022-12-26T08:51:00;58.65;;;32.53;;
62696;SDS011;48761;42.680;23.312;2022-12-26T08:53:29;56.40;;;32.33;;
62696;SDS011;48761;42.680;23.312;2022-12-26T08:55:55;60.95;;;35.22;;
62696;SDS011;48761;42.680;23.312;2022-12-26T08:58:24;54.15;;;34.42;;
62696;SDS011;48761;42.680;23.312;2022-12-26T09:00:50;60.63;;;35.60;;
62696;SDS011;48761;42.680;23.312;2022-12-26T09:03:17;62.30;;;36.22;;
62696;SDS011;48761;42.680;23.312;2022-12-26T09:05:43;64.38;;;38.13;;
62696;SDS011;48761;42.680;23.312;2022-12-26T09:08:09;67.15;;;40.90;;
62696;SDS011;48761;42.680;23.312;2022-12-26T09:10:35;65.70;;;41.45;;
62696;SDS011;48761;42.680;23.312;2022-12-26T09:13:02;83.88;;;47.83;;
62696;SDS011;48761;42.680;23.312;2022-12-26T09:15:28;87.82;;;50.42;;
62696;SDS011;48761;42.680;23.312;2022-12-26T09:17:55;89.30;;;51.25;;
62696;SDS011;48761;42.680;23.312;2022-12-26T09:20:21;87.43;;;50.60;;
62696;SDS011;48761;42.680;23.312;2022-12-26T09:22:47;83.00;;;48.15;;
62696;SDS011;48761;42.680;23.312;2022-12-26T09:25:13;80.80;;;47.15;;
62696;SDS011;48761;42.680;23.312;2022-12-26T09:27:39;70.47;;;43.42;;
62696;SDS011;48761;42.680;23.312;2022-12-26T09:30:05;76.07;;;45.40;;
62696;SDS011;48761;42.680;23.312;2022-12-26T09:32:32;80.63;;;47.17;;
62696;SDS011;48761;42.680;23.312;2022-12-26T09:35:00;74.47;;;41.78;;
62696;SDS011;48761;42.680;23.312;2022-12-26T09:37:26;65.78;;;39.25;;
62696;SDS011;48761;42.680;23.312;2022-12-26T09:39:53;65.45;;;37.22;;
62696;SDS011;48761;42.680;23.312;2022-12-26T09:50:15;66.80;;;39.33;;
62696;SDS011;48761;42.680;23.312;2022-12-26T09:52:53;64.07;;;38.20;;
62696;SDS011;48761;42.680;23.312;2022-12-26T10:01:33;57.45;;;35.90;;
62696;SDS011;48761;42.680;23.312;2022-12-26T10:04:00;62.30;;;36.08;;
62696;SDS011;48761;42.680;23.312;2022-12-26T10:06:34;54.00;;;34.33;;
62696;SDS011;48761;42.680;23.312;2022-12-26T10:20:33;56.97;;;35.53;;
62696;SDS011;48761;42.680;23.312;2022-12-26T10:25:56;53.97;;;31.88;;
62696;SDS011;48761;42.680;23.312;2022-12-26T10:28:31;50.03;;;29.80;;
62696;SDS011;48761;42.680;23.312;2022-12-26T10:31:04;46.08;;;30.00;;
62696;SDS011;48761;42.680;23.312;2022-12-26T10:33:45;45.65;;;30.20;;
62696;SDS011;48761;42.680;23.312;2022-12-26T10:36:15;44.45;;;27.98;;
62696;SDS011;48761;42.680;23.312;2022-12-26T10:38:48;44.47;;;27.45;;
62696;SDS011;48761;42.680;23.312;2022-12-26T10:41:30;48.33;;;27.33;;
62696;SDS011;48761;42.680;23.312;2022-12-26T10:44:03;40.70;;;26.02;;
62696;SDS011;48761;42.680;23.312;2022-12-26T10:49:06;44.17;;;27.20;;
62696;SDS011;48761;42.680;23.312;2022-12-26T10:51:35;44.47;;;26.73;;
62696;SDS011;48761;42.680;23.312;2022-12-26T10:54:02;48.63;;;27.15;;
62696;SDS011;48761;42.680;23.312;2022-12-26T10:56:28;37.13;;;24.25;;
62696;SDS011;48761;42.680;23.312;2022-12-26T10:58:58;41.28;;;24.63;;
62696;SDS011;48761;42.680;23.312;2022-12-26T11:04:08;41.00;;;23.83;;
62696;SDS011;48761;42.680;23.312;2022-12-26T11:06:41;30.98;;;20.20;;
62696;SDS011;48761;42.680;23.312;2022-12-26T11:12:17;33.60;;;20.90;;
62696;SDS011;48761;42.680;23.312;2022-12-26T11:14:45;29.67;;;19.25;;
62696;SDS011;48761;42.680;23.312;2022-12-26T11:17:12;33.78;;;19.83;;
62696;SDS011;48761;42.680;23.312;2022-12-26T11:19:51;26.05;;;17.27;;
62696;SDS011;48761;42.680;23.312;2022-12-26T11:22:38;26.33;;;16.90;;
62696;SDS011;48761;42.680;23.312;2022-12-26T11:27:54;21.90;;;12.63;;
62696;SDS011;48761;42.680;23.312;2022-12-26T11:30:23;20.00;;;12.93;;
62696;SDS011;48761;42.680;23.312;2022-12-26T11:35:50;25.42;;;13.65;;
62696;SDS011;48761;42.680;23.312;2022-12-26T11:38:18;22.05;;;13.75;;
62696;SDS011;48761;42.680;23.312;2022-12-26T11:40:46;22.88;;;13.68;;
62696;SDS011;48761;42.680;23.312;2022-12-26T11:43:14;24.05;;;12.80;;
62696;SDS011;48761;42.680;23.312;2022-12-26T11:45:43;24.13;;;13.60;;
62696;SDS011;48761;42.680;23.312;2022-12-26T11:48:21;30.77;;;16.85;;
62696;SDS011;48761;42.680;23.312;2022-12-26T11:50:49;28.02;;;15.82;;
62696;SDS011;48761;42.680;23.312;2022-12-26T11:53:17;22.25;;;14.98;;
62696;SDS011;48761;42.680;23.312;2022-12-26T11:55:44;26.60;;;13.70;;
62696;SDS011;48761;42.680;23.312;2022-12-26T11:58:21;21.48;;;13.55;;
62696;SDS011;48761;42.680;23.312;2022-12-26T12:03:21;24.95;;;15.10;;
62696;SDS011;48761;42.680;23.312;2022-12-26T12:06:00;22.20;;;14.32;;
62696;SDS011;48761;42.680;23.312;2022-12-26T12:08:45;20.50;;;12.35;;
62696;SDS011;48761;42.680;23.312;2022-12-26T12:14:34;19.70;;;12.40;;
62696;SDS011;48761;42.680;23.312;2022-12-26T12:17:18;22.52;;;13.88;;
62696;SDS011;48761;42.680;23.312;2022-12-26T12:20:03;23.50;;;13.85;;
62696;SDS011;48761;42.680;23.312;2022-12-26T12:33:38;23.77;;;13.75;;
62696;SDS011;48761;42.680;23.312;2022-12-26T12:36:19;20.75;;;12.98;;
62696;SDS011;48761;42.680;23.312;2022-12-26T12:39:19;23.35;;;13.23;;
62696;SDS011;48761;42.680;23.312;2022-12-26T12:45:14;26.08;;;11.93;;
62696;SDS011;48761;42.680;23.312;2022-12-26T12:56:16;19.88;;;10.85;;
62696;SDS011;48761;42.680;23.312;2022-12-26T12:59:10;20.63;;;12.25;;
62696;SDS011;48761;42.680;23.312;2022-12-26T13:01:42;19.10;;;11.35;;
62696;SDS011;48761;42.680;23.312;2022-12-26T13:07:02;21.05;;;10.38;;
62696;SDS011;48761;42.680;23.312;2022-12-26T13:09:35;16.25;;;9.75;;
62696;SDS011;48761;42.680;23.312;2022-12-26T13:12:10;15.80;;;8.77;;
62696;SDS011;48761;42.680;23.312;2022-12-26T13:14:54;15.68;;;8.75;;
62696;SDS011;48761;42.680;23.312;2022-12-26T13:17:40;21.95;;;9.07;;
62696;SDS011;48761;42.680;23.312;2022-12-26T13:20:21;15.43;;;8.77;;
62696;SDS011;48761;42.680;23.312;2022-12-26T13:23:15;12.38;;;6.80;;
62696;SDS011;48761;42.680;23.312;2022-12-26T13:25:45;16.92;;;7.85;;
62696;SDS011;48761;42.680;23.312;2022-12-26T13:28:16;15.70;;;7.55;;
62696;SDS011;48761;42.680;23.312;2022-12-26T13:30:51;20.48;;;9.55;;
62696;SDS011;48761;42.680;23.312;2022-12-26T13:33:20;13.45;;;8.00;;
62696;SDS011;48761;42.680;23.312;2022-12-26T13:36:00;15.38;;;7.20;;
62696;SDS011;48761;42.680;23.312;2022-12-26T13:41:32;12.52;;;6.55;;
62696;SDS011;48761;42.680;23.312;2022-12-26T13:49:24;13.30;;;6.85;;
62696;SDS011;48761;42.680;23.312;2022-12-26T13:52:38;11.70;;;6.45;;
62696;SDS011;48761;42.680;23.312;2022-12-26T14:00:04;13.32;;;6.47;;
62696;SDS011;48761;42.680;23.312;2022-12-26T14:16:30;10.07;;;5.30;;
62696;SDS011;48761;42.680;23.312;2022-12-26T14:19:09;10.65;;;5.38;;
62696;SDS011;48761;42.680;23.312;2022-12-26T14:21:47;11.07;;;5.95;;
62696;SDS011;48761;42.680;23.312;2022-12-26T14:40:35;32.72;;;13.68;;
62696;SDS011;48761;42.680;23.312;2022-12-26T14:43:10;28.08;;;14.57;;
62696;SDS011;48761;42.680;23.312;2022-12-26T14:45:55;21.98;;;13.35;;
62696;SDS011;48761;42.680;23.312;2022-12-26T14:50:52;23.83;;;14.15;;
62696;SDS011;48761;42.680;23.312;2022-12-26T14:53:41;29.85;;;16.00;;
62696;SDS011;48761;42.680;23.312;2022-12-26T15:11:32;29.42;;;15.57;;
62696;SDS011;48761;42.680;23.312;2022-12-26T15:22:48;30.48;;;16.58;;
62696;SDS011;48761;42.680;23.312;2022-12-26T15:40:05;36.92;;;19.90;;
62696;SDS011;48761;42.680;23.312;2022-12-26T15:45:47;36.95;;;17.05;;
62696;SDS011;48761;42.680;23.312;2022-12-26T15:51:48;31.23;;;17.45;;
62696;SDS011;48761;42.680;23.312;2022-12-26T15:57:19;36.80;;;17.65;;
62696;SDS011;48761;42.680;23.312;2022-12-26T16:00:10;32.45;;;16.92;;
62696;SDS011;48761;42.680;23.312;2022-12-26T16:02:38;30.08;;;18.00;;
62696;SDS011;48761;42.680;23.312;2022-12-26T16:10:45;37.83;;;18.58;;
62696;SDS011;48761;42.680;23.312;2022-12-26T16:15:45;42.28;;;20.23;;
62696;SDS011;48761;42.680;23.312;2022-12-26T16:18:28;38.60;;;19.13;;
62696;SDS011;48761;42.680;23.312;2022-12-26T16:20:59;38.10;;;19.23;;
62696;SDS011;48761;42.680;23.312;2022-12-26T16:23:29;40.67;;;18.90;;
62696;SDS011;48761;42.680;23.312;2022-12-26T16:25:59;43.60;;;19.42;;
62696;SDS011;48761;42.680;23.312;2022-12-26T16:28:27;43.17;;;21.70;;
62696;SDS011;48761;42.680;23.312;2022-12-26T16:31:02;40.35;;;20.40;;
62696;SDS011;48761;42.680;23.312;2022-12-26T16:33:39;40.50;;;20.95;;
62696;SDS011;48761;42.680;23.312;2022-12-26T16:36:07;43.83;;;22.27;;
62696;SDS011;48761;42.680;23.312;2022-12-26T16:38:35;43.72;;;21.13;;
62696;SDS011;48761;42.680;23.312;2022-12-26T16:41:05;43.38;;;22.25;;
62696;SDS011;48761;42.680;23.312;2022-12-26T16:43:42;49.03;;;22.13;;
62696;SDS011;48761;42.680;23.312;2022-12-26T16:46:08;42.47;;;23.35;;
62696;SDS011;48761;42.680;23.312;2022-12-26T16:48:37;44.65;;;23.33;;
62696;SDS011;48761;42.680;23.312;2022-12-26T16:51:06;41.78;;;22.27;;
62696;SDS011;48761;42.680;23.312;2022-12-26T16:53:52;42.05;;;21.48;;
62696;SDS011;48761;42.680;23.312;2022-12-26T16:56:25;43.50;;;21.52;;
62696;SDS011;48761;42.680;23.312;2022-12-26T17:01:54;58.97;;;27.15;;
62696;SDS011;48761;42.680;23.312;2022-12-26T17:04:23;55.58;;;28.27;;
62696;SDS011;48761;42.680;23.312;2022-12-26T17:06:54;48.53;;;26.38;;
62696;SDS011;48761;42.680;23.312;2022-12-26T17:09:24;54.45;;;26.60;;
62696;SDS011;48761;42.680;23.312;2022-12-26T17:14:31;49.05;;;24.08;;
62696;SDS011;48761;42.680;23.312;2022-12-26T17:17:45;50.65;;;25.45;;
62696;SDS011;48761;42.680;23.312;2022-12-26T17:19:46;46.83;;;23.92;;
62696;SDS011;48761;42.680;23.312;2022-12-26T17:25:12;51.22;;;24.13;;
62696;SDS011;48761;42.680;23.312;2022-12-26T17:27:42;50.75;;;24.85;;
62696;SDS011;48761;42.680;23.312;2022-12-26T17:30:28;48.63;;;24.55;;
62696;SDS011;48761;42.680;23.312;2022-12-26T17:33:29;50.70;;;25.23;;
62696;SDS011;48761;42.680;23.312;2022-12-26T17:36:03;57.08;;;27.30;;
62696;SDS011;48761;42.680;23.312;2022-12-26T17:38:31;54.42;;;26.60;;
62696;SDS011;48761;42.680;23.312;2022-12-26T17:41:00;53.17;;;27.00;;
62696;SDS011;48761;42.680;23.312;2022-12-26T17:43:29;51.63;;;26.25;;
62696;SDS011;48761;42.680;23.312;2022-12-26T17:45:57;53.20;;;27.48;;
62696;SDS011;48761;42.680;23.312;2022-12-26T17:48:23;58.20;;;26.10;;
62696;SDS011;48761;42.680;23.312;2022-12-26T17:50:53;51.15;;;25.40;;
62696;SDS011;48761;42.680;23.312;2022-12-26T17:55:47;51.90;;;25.15;;
62696;SDS011;48761;42.680;23.312;2022-12-26T17:58:13;44.65;;;24.45;;
62696;SDS011;48761;42.680;23.312;2022-12-26T18:00:40;47.00;;;24.55;;
62696;SDS011;48761;42.680;23.312;2022-12-26T18:03:07;45.83;;;24.40;;
62696;SDS011;48761;42.680;23.312;2022-12-26T18:05:33;39.65;;;22.88;;
62696;SDS011;48761;42.680;23.312;2022-12-26T18:08:01;46.38;;;23.50;;
62696;SDS011;48761;42.680;23.312;2022-12-26T18:10:29;45.15;;;23.33;;
62696;SDS011;48761;42.680;23.312;2022-12-26T18:12:56;43.75;;;22.75;;
62696;SDS011;48761;42.680;23.312;2022-12-26T18:15:24;45.40;;;22.77;;
62696;SDS011;48761;42.680;23.312;2022-12-26T18:17:52;44.83;;;23.48;;